Highland Lake, New York
Current Conditions -  °F | °C
As of 3:55 PM on Friday 19 Dec 2014 (Local Time) from KMSV Reporting Station
Overcast Overcast  
Wind Chill: 14°   Ceiling: 1900
Heat Index: 25°   Visibility: 10mi
Dew Point: 18°   Wind: 12mph
Humidity: 74%   Direction: 300°WNW
Pressure: 30.05"   Gusts: 17mph
Location:  41.52°N, 74.85°W
Report Text: KMSV 192055Z AUTO 30010G15KT 10SM OVC019 M04/M08 A3005 RMK AO1 52010
Loading
Personal Weather Stations






























Interactive Weather Map New forecast layout! Learn more

10-Day Weather Forecast

Advertisements
Track Severe Weather on mobile